Time;durP1;ratioP1;P1;durP2;ratioP2;P2;SDS_P1;SDS_P2;PMS_P1;PMS_P2;Temp;Humidity;BMP_temperature;BMP_pressure;BME280_temperature;BME280_humidity;BME280_pressure;Samples;Min_cycle;Max_cycle;Signal;HPM_P1;HPM_P2
2021/08/26 00:07:34;;;;;;;10.67;8.70;;;16.20;99.90;;;;;;5080042;28;20641;-67
2021/08/26 00:10:06;;;;;;;12.70;9.20;;;16.20;99.90;;;;;;5066131;28;20203;-66
2021/08/26 00:12:38;;;;;;;12.97;8.50;;;16.10;99.90;;;;;;5079793;28;20195;-66
2021/08/26 00:15:08;;;;;;;15.63;8.27;;;16.10;99.90;;;;;;5085452;28;20204;-66
2021/08/26 00:17:39;;;;;;;10.00;8.20;;;16.10;99.90;;;;;;5088346;28;20773;-66
2021/08/26 00:20:09;;;;;;;14.70;8.00;;;16.10;99.90;;;;;;5077431;28;20287;-67
2021/08/26 00:22:38;;;;;;;10.43;7.57;;;16.10;99.90;;;;;;5079819;28;20286;-66
2021/08/26 00:25:07;;;;;;;13.40;6.67;;;16.10;99.90;;;;;;5082276;28;20219;-66
2021/08/26 00:27:36;;;;;;;11.20;7.07;;;16.10;99.90;;;;;;5084542;28;20280;-66
2021/08/26 00:30:04;;;;;;;10.07;6.30;;;16.10;99.90;;;;;;5086459;28;20567;-67
2021/08/26 00:32:33;;;;;;;16.50;6.10;;;16.10;99.90;;;;;;5048031;28;20195;-66
2021/08/26 00:35:01;;;;;;;12.77;6.70;;;16.10;99.90;;;;;;5085676;28;20752;-66
2021/08/26 00:37:31;;;;;;;7.53;5.87;;;16.10;99.90;;;;;;5090879;28;20281;-66
2021/08/26 00:39:59;;;;;;;10.87;7.50;;;16.00;99.90;;;;;;5085165;28;20795;-66
2021/08/26 00:42:27;;;;;;;10.87;7.90;;;16.00;99.90;;;;;;5082622;28;20183;-66
2021/08/26 00:44:55;;;;;;;15.80;8.50;;;16.00;99.90;;;;;;5088248;28;20202;-66
2021/08/26 00:47:25;;;;;;;10.77;8.73;;;16.00;99.90;;;;;;5084311;28;20282;-66
2021/08/26 00:49:54;;;;;;;16.13;9.30;;;16.00;99.90;;;;;;5066496;28;20670;-66
2021/08/26 00:52:24;;;;;;;15.67;9.17;;;16.10;99.90;;;;;;5085921;28;20203;-66
2021/08/26 00:54:54;;;;;;;11.37;8.40;;;16.10;99.90;;;;;;5084617;28;20216;-67
2021/08/26 00:57:23;;;;;;;13.73;8.20;;;16.10;99.90;;;;;;5081502;28;20184;-67
2021/08/26 00:59:53;;;;;;;14.97;7.63;;;16.10;99.90;;;;;;5084808;28;20283;-67
2021/08/26 01:02:28;;;;;;;8.93;6.87;;;16.10;99.90;;;;;;5077528;28;20187;-67
2021/08/26 01:05:03;;;;;;;12.27;7.57;;;16.10;99.90;;;;;;5081562;28;20187;-66
2021/08/26 01:07:36;;;;;;;10.57;7.40;;;16.10;99.90;;;;;;5080747;28;20329;-67
2021/08/26 01:10:07;;;;;;;10.27;7.57;;;16.10;99.90;;;;;;5079697;28;20599;-67
2021/08/26 01:12:39;;;;;;;9.87;7.13;;;16.10;99.90;;;;;;5080829;28;20286;-66
2021/08/26 01:15:09;;;;;;;10.63;7.60;;;16.10;99.90;;;;;;5077648;28;20569;-67
2021/08/26 01:17:37;;;;;;;15.77;6.93;;;16.10;99.90;;;;;;5064215;28;20300;-66
2021/08/26 01:20:07;;;;;;;10.77;6.97;;;16.10;99.90;;;;;;5088849;28;20618;-67
2021/08/26 01:22:36;;;;;;;8.50;6.63;;;16.10;99.90;;;;;;5080491;28;20254;-66
2021/08/26 01:25:08;;;;;;;9.83;6.40;;;16.10;99.90;;;;;;5083971;28;20192;-66
2021/08/26 01:27:41;;;;;;;9.57;6.73;;;16.10;99.90;;;;;;5082309;28;20416;-67
2021/08/26 01:30:12;;;;;;;12.23;6.47;;;16.10;99.90;;;;;;5089786;28;20286;-66
2021/08/26 01:32:42;;;;;;;11.30;6.40;;;16.10;99.90;;;;;;5067024;28;20199;-66
2021/08/26 01:35:12;;;;;;;10.67;6.87;;;16.10;99.90;;;;;;5081250;28;20705;-66
2021/08/26 01:37:41;;;;;;;9.73;6.20;;;16.10;99.90;;;;;;5089289;28;20225;-67
2021/08/26 01:40:11;;;;;;;11.50;7.10;;;16.10;99.90;;;;;;5064644;28;20215;-66
2021/08/26 01:42:41;;;;;;;11.87;6.60;;;16.10;99.90;;;;;;5083593;28;20231;-67
2021/08/26 01:45:10;;;;;;;10.90;7.60;;;16.10;99.90;;;;;;5081051;28;20562;-66
2021/08/26 01:47:40;;;;;;;10.80;7.73;;;16.10;99.90;;;;;;5081106;28;20738;-66
2021/08/26 01:50:09;;;;;;;10.23;7.00;;;16.10;99.90;;;;;;5081286;28;20227;-66
2021/08/26 01:52:37;;;;;;;11.03;7.13;;;16.10;99.90;;;;;;5061761;28;20219;-66
2021/08/26 01:55:06;;;;;;;10.63;7.20;;;16.10;99.90;;;;;;5080320;28;20310;-66
2021/08/26 01:57:34;;;;;;;11.20;7.40;;;16.10;99.90;;;;;;5081190;28;20229;-66
2021/08/26 02:00:07;;;;;;;12.80;7.80;;;16.10;99.90;;;;;;5066728;28;20200;-66
2021/08/26 02:02:35;;;;;;;11.83;7.50;;;16.10;99.90;;;;;;5046244;28;20235;-66
2021/08/26 02:05:04;;;;;;;12.00;8.00;;;16.10;99.90;;;;;;5081547;28;20248;-66
2021/08/26 02:07:33;;;;;;;12.13;8.10;;;16.10;99.90;;;;;;5085180;28;20774;-66
2021/08/26 02:10:01;;;;;;;15.33;8.40;;;16.10;99.90;;;;;;5083478;28;20199;-66
2021/08/26 02:12:29;;;;;;;11.03;7.83;;;16.10;99.90;;;;;;5079368;28;20287;-67
2021/08/26 02:14:58;;;;;;;11.07;8.53;;;16.10;99.90;;;;;;5083118;28;20199;-66
2021/08/26 02:17:28;;;;;;;15.60;9.03;;;16.10;99.90;;;;;;5085181;28;20253;-66
2021/08/26 02:19:56;;;;;;;16.10;9.43;;;16.10;99.90;;;;;;5066739;28;20895;-66
2021/08/26 02:22:24;;;;;;;12.60;8.63;;;16.10;99.90;;;;;;5080936;28;20231;-66
2021/08/26 02:24:52;;;;;;;11.10;8.37;;;16.10;99.90;;;;;;5088298;28;20219;-67
2021/08/26 02:27:21;;;;;;;12.63;8.33;;;16.10;99.90;;;;;;5083358;28;20195;-66
2021/08/26 02:29:49;;;;;;;15.07;9.27;;;16.10;99.90;;;;;;5082963;28;20303;-66
2021/08/26 02:32:17;;;;;;;14.23;8.10;;;16.10;99.90;;;;;;5082665;28;20187;-66
2021/08/26 02:34:47;;;;;;;9.77;8.23;;;16.10;99.90;;;;;;5082198;28;20661;-67
2021/08/26 02:37:15;;;;;;;9.93;7.80;;;16.10;99.90;;;;;;5065506;28;20697;-66
2021/08/26 02:39:44;;;;;;;9.33;7.00;;;16.10;99.90;;;;;;5086288;28;20219;-66
2021/08/26 02:42:12;;;;;;;8.70;7.10;;;16.10;99.90;;;;;;5082690;28;20220;-67
2021/08/26 02:44:40;;;;;;;7.77;7.03;;;16.10;99.90;;;;;;5081032;28;20231;-66
2021/08/26 02:47:08;;;;;;;8.40;7.53;;;16.10;99.90;;;;;;5067298;28;20187;-66
2021/08/26 02:49:37;;;;;;;9.17;7.40;;;16.10;99.90;;;;;;5085990;28;20724;-66
2021/08/26 02:52:07;;;;;;;9.73;7.10;;;16.10;99.90;;;;;;5085649;28;20603;-66
2021/08/26 02:54:35;;;;;;;10.37;7.60;;;16.10;99.90;;;;;;5081843;28;20235;-66
2021/08/26 02:57:04;;;;;;;7.63;6.83;;;16.10;99.90;;;;;;5082674;28;20235;-66
2021/08/26 02:59:32;;;;;;;11.10;6.63;;;16.20;99.90;;;;;;5085949;28;20230;-66
2021/08/26 03:02:00;;;;;;;7.17;6.30;;;16.20;99.90;;;;;;5081726;28;20278;-66
2021/08/26 03:04:29;;;;;;;7.83;5.63;;;16.20;99.90;;;;;;5080849;28;20195;-66
2021/08/26 03:07:00;;;;;;;7.63;6.30;;;16.20;99.90;;;;;;5081567;28;20223;-66
2021/08/26 03:09:29;;;;;;;6.70;6.00;;;16.20;99.90;;;;;;5087858;28;20199;-66
2021/08/26 03:11:58;;;;;;;5.93;5.53;;;16.10;99.90;;;;;;5086298;28;20291;-67
2021/08/26 03:14:26;;;;;;;6.37;5.77;;;16.10;99.90;;;;;;5082855;28;20673;-66
2021/08/26 03:16:54;;;;;;;6.47;5.87;;;16.10;99.90;;;;;;5086408;28;20706;-66
2021/08/26 03:19:23;;;;;;;9.60;6.03;;;16.20;99.90;;;;;;5086848;28;20203;-66
2021/08/26 03:21:51;;;;;;;6.00;5.40;;;16.20;99.90;;;;;;5089449;28;20199;-66
2021/08/26 03:24:20;;;;;;;7.57;5.50;;;16.20;99.90;;;;;;5062662;28;20221;-66
2021/08/26 03:26:50;;;;;;;5.10;4.67;;;16.20;99.90;;;;;;5087417;28;20215;-66
2021/08/26 03:29:18;;;;;;;5.30;4.90;;;16.20;99.90;;;;;;5086574;28;20222;-66
2021/08/26 03:31:46;;;;;;;5.70;4.93;;;16.30;99.90;;;;;;5086586;28;20350;-66
2021/08/26 03:34:14;;;;;;;3.90;3.60;;;16.30;99.90;;;;;;5067264;28;20728;-66
2021/08/26 03:36:42;;;;;;;3.77;3.40;;;16.20;99.90;;;;;;5069264;28;20268;-66
2021/08/26 03:39:11;;;;;;;4.73;3.00;;;16.10;99.90;;;;;;5093347;28;20199;-66
2021/08/26 03:41:39;;;;;;;4.20;3.00;;;16.00;99.90;;;;;;5064724;28;20286;-66
2021/08/26 03:44:09;;;;;;;4.00;3.00;;;15.90;99.90;;;;;;5081995;28;20278;-66
2021/08/26 03:46:37;;;;;;;3.37;2.80;;;15.90;99.90;;;;;;5083496;28;20219;-66
2021/08/26 03:49:06;;;;;;;3.30;2.47;;;15.90;99.90;;;;;;5086765;28;20184;-66
2021/08/26 03:51:34;;;;;;;2.60;2.40;;;15.90;99.90;;;;;;5089416;28;20349;-66
2021/08/26 03:54:02;;;;;;;3.70;2.70;;;15.90;99.90;;;;;;5081672;28;20192;-66
2021/08/26 03:56:30;;;;;;;4.87;2.60;;;15.90;99.90;;;;;;5087421;28;20242;-66
2021/08/26 03:58:59;;;;;;;4.63;2.27;;;15.90;99.90;;;;;;5088139;28;20223;-66
2021/08/26 04:01:28;;;;;;;3.43;2.60;;;15.90;99.90;;;;;;5088173;28;20650;-66
2021/08/26 04:03:57;;;;;;;2.63;2.43;;;15.90;99.90;;;;;;5082168;28;20257;-66
2021/08/26 04:06:25;;;;;;;3.90;2.40;;;15.90;99.90;;;;;;5088785;28;20227;-66
2021/08/26 04:08:54;;;;;;;3.30;2.53;;;15.90;99.90;;;;;;5082390;28;20195;-66
2021/08/26 04:11:22;;;;;;;4.10;2.30;;;15.80;99.90;;;;;;5087326;28;20568;-66
2021/08/26 04:13:50;;;;;;;4.10;2.40;;;15.80;99.90;;;;;;5082671;28;20203;-66
2021/08/26 04:16:19;;;;;;;3.10;2.30;;;15.80;99.90;;;;;;5086181;28;20551;-66
2021/08/26 04:18:49;;;;;;;3.27;2.20;;;15.90;99.90;;;;;;5083984;28;20549;-66
2021/08/26 04:21:17;;;;;;;6.37;2.70;;;15.80;99.90;;;;;;5084627;28;20192;-66
2021/08/26 04:23:45;;;;;;;3.73;2.30;;;15.80;99.90;;;;;;5084379;28;20286;-66
2021/08/26 04:26:13;;;;;;;4.53;2.63;;;15.80;99.90;;;;;;5087991;28;20195;-66
2021/08/26 04:28:42;;;;;;;3.13;2.70;;;15.80;99.90;;;;;;5067603;28;20729;-66
2021/08/26 04:31:10;;;;;;;6.10;3.03;;;15.70;99.90;;;;;;5088372;28;20231;-66
2021/08/26 04:33:38;;;;;;;5.47;2.57;;;15.70;99.90;;;;;;5067516;28;20219;-66
2021/08/26 04:36:08;;;;;;;6.97;3.10;;;15.70;99.90;;;;;;5088417;28;20219;-66
2021/08/26 04:38:36;;;;;;;5.03;3.00;;;15.70;99.90;;;;;;5086509;28;20659;-66
2021/08/26 04:41:05;;;;;;;6.30;2.90;;;15.70;99.90;;;;;;5092297;28;20768;-66
2021/08/26 04:43:33;;;;;;;8.13;3.90;;;15.70;99.90;;;;;;5078954;28;20265;-66
2021/08/26 04:46:01;;;;;;;7.87;3.33;;;15.60;99.90;;;;;;5083248;28;20314;-66
2021/08/26 04:48:29;;;;;;;11.40;3.27;;;15.60;99.90;;;;;;5050171;28;20191;-66
2021/08/26 04:50:58;;;;;;;7.47;3.07;;;15.60;99.90;;;;;;5090049;28;20309;-66
2021/08/26 04:53:28;;;;;;;7.77;3.10;;;15.60;99.90;;;;;;5086114;28;20227;-66
2021/08/26 04:55:56;;;;;;;8.50;3.40;;;15.60;99.90;;;;;;5081411;28;20279;-66
2021/08/26 04:58:24;;;;;;;8.60;3.60;;;15.60;99.90;;;;;;5082583;28;20314;-66
2021/08/26 05:00:52;;;;;;;7.47;3.80;;;15.60;99.90;;;;;;5087382;28;20206;-66
2021/08/26 05:03:21;;;;;;;7.47;3.90;;;15.50;99.90;;;;;;5083650;28;20227;-65
2021/08/26 05:05:49;;;;;;;6.80;3.57;;;15.50;99.90;;;;;;5086057;28;20268;-66
2021/08/26 05:08:18;;;;;;;8.83;3.30;;;15.50;99.90;;;;;;5085369;28;20194;-66
2021/08/26 05:10:47;;;;;;;12.30;4.17;;;15.50;99.90;;;;;;5087043;28;20581;-66
2021/08/26 05:13:15;;;;;;;7.07;3.70;;;15.50;99.90;;;;;;5081798;28;20219;-66
2021/08/26 05:15:44;;;;;;;10.07;3.97;;;15.50;99.90;;;;;;5082029;28;20291;-66
2021/08/26 05:18:12;;;;;;;10.00;3.90;;;15.50;99.90;;;;;;5091184;28;20313;-65
2021/08/26 05:20:40;;;;;;;14.07;4.40;;;15.50;99.90;;;;;;5084021;28;20648;-66
2021/08/26 05:23:08;;;;;;;10.10;4.33;;;15.50;99.90;;;;;;5076642;28;20226;-66
2021/08/26 05:25:37;;;;;;;11.40;4.00;;;15.40;99.90;;;;;;5083510;28;20195;-66
2021/08/26 05:28:09;;;;;;;12.70;4.37;;;15.40;99.90;;;;;;5083030;28;20190;-66
2021/08/26 05:30:39;;;;;;;12.17;4.63;;;15.40;99.90;;;;;;5083671;28;20680;-66
2021/08/26 05:33:07;;;;;;;10.60;4.37;;;15.40;99.90;;;;;;5082428;28;20557;-66
2021/08/26 05:35:35;;;;;;;8.07;4.10;;;15.40;99.90;;;;;;5084285;28;20290;-66
2021/08/26 05:38:04;;;;;;;11.40;3.90;;;15.50;99.90;;;;;;5080765;28;20350;-65
2021/08/26 05:40:32;;;;;;;9.00;4.17;;;15.50;99.90;;;;;;5082980;28;20550;-66
2021/08/26 05:43:01;;;;;;;11.77;4.80;;;15.50;99.90;;;;;;5082554;28;20415;-66
2021/08/26 05:45:30;;;;;;;14.20;4.07;;;15.50;99.90;;;;;;5081031;28;20696;-65
2021/08/26 05:47:59;;;;;;;15.53;4.03;;;15.60;99.90;;;;;;5082771;28;20294;-66
2021/08/26 05:50:27;;;;;;;9.20;4.27;;;15.60;99.90;;;;;;5080251;28;20282;-66
2021/08/26 05:52:55;;;;;;;14.33;4.57;;;15.60;99.90;;;;;;5079711;28;21411;-66
2021/08/26 05:55:23;;;;;;;9.27;4.20;;;15.60;99.90;;;;;;5082030;28;20223;-66
2021/08/26 05:57:52;;;;;;;12.63;4.70;;;15.70;99.90;;;;;;5084918;28;20758;-66
2021/08/26 06:00:20;;;;;;;14.00;5.37;;;15.60;99.90;;;;;;5089440;28;20574;-66
2021/08/26 06:02:50;;;;;;;12.60;4.10;;;15.60;99.90;;;;;;5084923;28;20650;-66
2021/08/26 06:05:19;;;;;;;9.03;4.50;;;15.60;99.90;;;;;;5083909;28;20187;-66
2021/08/26 06:07:48;;;;;;;8.80;4.67;;;15.60;99.90;;;;;;5085175;28;20203;-66
2021/08/26 06:10:17;;;;;;;13.43;4.60;;;15.60;99.90;;;;;;5062965;28;20277;-66
2021/08/26 06:12:45;;;;;;;12.67;4.90;;;15.70;99.90;;;;;;5064400;28;20191;-66
2021/08/26 06:15:14;;;;;;;12.43;5.17;;;15.60;99.90;;;;;;5085151;28;20290;-66
2021/08/26 06:17:42;;;;;;;11.30;4.23;;;15.70;99.90;;;;;;5082296;28;20217;-66
2021/08/26 06:20:14;;;;;;;16.83;4.80;;;15.70;99.90;;;;;;5083676;28;20323;-65
2021/08/26 06:22:44;;;;;;;11.43;4.27;;;15.70;99.90;;;;;;5083146;28;20609;-65
2021/08/26 06:25:14;;;;;;;16.80;4.87;;;15.70;99.90;;;;;;5078973;28;20733;-65
2021/08/26 06:27:42;;;;;;;10.97;4.60;;;15.70;99.90;;;;;;5086082;28;20300;-66
2021/08/26 06:30:12;;;;;;;12.60;4.30;;;15.70;99.90;;;;;;5083789;28;20219;-66
2021/08/26 06:32:41;;;;;;;13.40;4.33;;;15.80;99.90;;;;;;5083530;28;20669;-66
2021/08/26 06:35:12;;;;;;;14.33;5.00;;;15.80;99.90;;;;;;5083035;28;21753;-66
2021/08/26 06:37:40;;;;;;;14.40;4.97;;;15.90;99.90;;;;;;5085856;28;20298;-65
2021/08/26 06:40:09;;;;;;;15.50;4.60;;;15.90;99.90;;;;;;5067623;28;20268;-66
2021/08/26 06:42:37;;;;;;;11.10;4.43;;;16.00;99.90;;;;;;5082384;28;20285;-65
2021/08/26 06:45:07;;;;;;;10.43;4.53;;;16.00;99.90;;;;;;5083926;28;20286;-66
2021/08/26 06:47:35;;;;;;;13.87;4.30;;;16.00;99.90;;;;;;5083257;28;20217;-66
2021/08/26 06:50:04;;;;;;;14.43;4.73;;;16.00;99.90;;;;;;5085397;28;20223;-66
2021/08/26 06:52:35;;;;;;;12.07;4.70;;;16.00;99.90;;;;;;5082785;28;20201;-66
2021/08/26 06:55:07;;;;;;;12.43;4.60;;;16.00;99.90;;;;;;5080488;28;20196;-66
2021/08/26 06:57:35;;;;;;;14.73;4.67;;;16.10;99.90;;;;;;5083491;28;20702;-66
2021/08/26 07:00:04;;;;;;;14.27;4.37;;;16.10;99.90;;;;;;5081860;28;20234;-66
2021/08/26 07:02:32;;;;;;;8.93;4.27;;;16.20;99.90;;;;;;5080469;28;20200;-66
2021/08/26 07:05:02;;;;;;;15.33;5.03;;;16.20;99.90;;;;;;5087554;28;20690;-66
2021/08/26 07:07:30;;;;;;;9.90;4.20;;;16.30;99.90;;;;;;5077065;28;20227;-66
2021/08/26 07:10:00;;;;;;;13.37;4.30;;;16.40;99.90;;;;;;5081698;28;20270;-66
2021/08/26 07:12:30;;;;;;;12.17;4.17;;;16.40;99.90;;;;;;5082317;28;20596;-66
2021/08/26 07:14:59;;;;;;;11.00;4.70;;;16.40;99.90;;;;;;5081628;28;20194;-66
2021/08/26 07:17:27;;;;;;;9.07;3.77;;;16.40;99.90;;;;;;5060534;28;20686;-66
2021/08/26 07:19:56;;;;;;;11.30;4.30;;;16.40;99.90;;;;;;5080370;28;20253;-66
2021/08/26 07:22:24;;;;;;;9.50;4.10;;;16.60;99.90;;;;;;5082812;28;20188;-66
2021/08/26 07:24:52;;;;;;;10.27;3.70;;;16.60;99.90;;;;;;5082534;28;20758;-66
2021/08/26 07:27:22;;;;;;;8.77;4.10;;;16.70;99.90;;;;;;5083622;28;20193;-66
2021/08/26 07:29:50;;;;;;;8.97;3.80;;;16.70;99.90;;;;;;5084642;28;20249;-66
2021/08/26 07:32:20;;;;;;;10.80;3.90;;;16.70;99.90;;;;;;5065410;28;20326;-66
2021/08/26 07:34:48;;;;;;;12.50;3.97;;;16.80;99.90;;;;;;5079018;28;20282;-66
2021/08/26 07:37:17;;;;;;;16.87;4.73;;;16.80;99.90;;;;;;5079231;28;20302;-65
2021/08/26 07:39:45;;;;;;;10.33;3.83;;;16.90;99.90;;;;;;5078709;28;20216;-66
2021/08/26 07:42:14;;;;;;;11.47;3.90;;;17.00;99.90;;;;;;5079610;28;20275;-66
2021/08/26 07:44:43;;;;;;;10.80;3.77;;;17.10;99.90;;;;;;5081880;28;20716;-66
2021/08/26 07:47:12;;;;;;;9.00;3.50;;;17.20;99.90;;;;;;5081888;28;22769;-66
2021/08/26 07:49:40;;;;;;;12.13;4.03;;;17.20;99.90;;;;;;5083479;28;20216;-66
2021/08/26 07:52:08;;;;;;;10.93;3.57;;;17.30;99.90;;;;;;5078339;28;20276;-66
2021/08/26 07:54:36;;;;;;;15.17;3.93;;;17.30;99.90;;;;;;5078885;28;20291;-66
2021/08/26 07:57:04;;;;;;;9.30;3.87;;;17.30;99.90;;;;;;5083815;28;20203;-66
2021/08/26 07:59:35;;;;;;;7.67;3.13;;;17.40;99.90;;;;;;5083357;28;20681;-66
2021/08/26 08:02:06;;;;;;;8.93;3.23;;;17.40;99.90;;;;;;5082790;28;20222;-66
2021/08/26 08:04:36;;;;;;;8.37;3.70;;;17.50;99.90;;;;;;5087116;28;20195;-66
2021/08/26 08:07:04;;;;;;;9.00;3.40;;;17.60;99.90;;;;;;5084632;28;20324;-66
2021/08/26 08:09:33;;;;;;;9.03;3.40;;;17.70;99.90;;;;;;5078952;28;20277;-66
2021/08/26 08:12:02;;;;;;;8.27;3.40;;;17.70;99.90;;;;;;5086367;28;20216;-66
2021/08/26 08:14:31;;;;;;;12.27;3.97;;;17.70;99.90;;;;;;5086258;28;20700;-66
2021/08/26 08:17:00;;;;;;;15.30;3.33;;;17.80;99.90;;;;;;5085982;28;20592;-66
2021/08/26 08:19:29;;;;;;;11.30;4.07;;;17.80;99.90;;;;;;5078873;28;20691;-66
2021/08/26 08:21:59;;;;;;;15.33;3.73;;;17.80;99.90;;;;;;5083354;28;20636;-67
2021/08/26 08:24:28;;;;;;;14.20;4.13;;;17.80;99.90;;;;;;5088430;28;20674;-66
2021/08/26 08:26:57;;;;;;;16.33;3.83;;;17.80;99.90;;;;;;5088528;28;20188;-66
2021/08/26 08:29:26;;;;;;;14.00;3.60;;;17.80;99.90;;;;;;5081048;28;20219;-66
2021/08/26 08:31:54;;;;;;;14.07;3.50;;;17.90;99.90;;;;;;5084764;28;20199;-66
2021/08/26 08:34:22;;;;;;;14.70;4.33;;;17.90;99.90;;;;;;5081496;28;20633;-65
2021/08/26 08:36:52;;;;;;;8.77;3.57;;;17.80;99.90;;;;;;5066130;28;20290;-66
2021/08/26 08:39:21;;;;;;;10.43;3.80;;;17.70;99.90;;;;;;5082642;28;20244;-66
2021/08/26 08:41:49;;;;;;;9.13;3.27;;;17.60;99.90;;;;;;5083416;28;20191;-65
2021/08/26 08:44:17;;;;;;;8.00;3.27;;;17.50;99.90;;;;;;5085206;28;20201;-66
2021/08/26 08:46:49;;;;;;;9.43;3.63;;;17.40;99.90;;;;;;5089362;28;20195;-66
2021/08/26 08:49:21;;;;;;;12.67;3.33;;;17.20;99.90;;;;;;5080968;28;20310;-65
2021/08/26 08:51:53;;;;;;;12.30;3.47;;;17.10;99.90;;;;;;5082471;28;20223;-66
2021/08/26 08:54:24;;;;;;;12.50;3.97;;;16.90;99.90;;;;;;5081198;28;20283;-65
2021/08/26 08:56:52;;;;;;;13.27;4.00;;;16.90;99.90;;;;;;5083677;28;20187;-66
2021/08/26 08:59:21;;;;;;;13.07;3.60;;;16.90;99.90;;;;;;5081320;28;20313;-66
2021/08/26 09:01:53;;;;;;;11.70;3.30;;;16.80;99.90;;;;;;5082392;28;20249;-66
2021/08/26 09:04:22;;;;;;;8.97;3.23;;;16.80;99.90;;;;;;5079951;28;20201;-65
2021/08/26 09:06:52;;;;;;;9.53;2.93;;;16.70;99.90;;;;;;5081128;28;20251;-66
2021/08/26 09:09:21;;;;;;;7.00;2.80;;;16.60;99.90;;;;;;5077413;28;20192;-65
2021/08/26 09:11:51;;;;;;;9.47;2.60;;;16.50;99.90;;;;;;5082732;28;20605;-66
2021/08/26 09:14:21;;;;;;;12.50;3.30;;;16.50;99.90;;;;;;5082383;28;20283;-66
2021/08/26 09:16:51;;;;;;;7.03;3.30;;;16.60;99.90;;;;;;5080956;28;20199;-66
2021/08/26 09:19:23;;;;;;;12.57;3.07;;;16.80;99.90;;;;;;5060830;28;20461;-66
2021/08/26 09:21:54;;;;;;;5.87;2.57;;;17.00;99.90;;;;;;5082870;28;20196;-66
2021/08/26 09:24:25;;;;;;;8.53;2.77;;;17.20;99.90;;;;;;5093925;28;20645;-66
2021/08/26 09:26:53;;;;;;;8.33;3.13;;;17.40;99.90;;;;;;5081363;28;20619;-66
2021/08/26 09:29:21;;;;;;;7.33;2.80;;;17.60;99.90;;;;;;5080094;28;20199;-66
2021/08/26 09:31:51;;;;;;;8.77;3.10;;;17.70;99.90;;;;;;5081146;28;20282;-65
2021/08/26 09:34:20;;;;;;;11.40;3.37;;;17.80;99.90;;;;;;5086470;28;20226;-66
2021/08/26 09:36:57;;;;;;;9.40;2.80;;;17.70;99.90;;;;;;5063722;28;20202;-66
2021/08/26 09:39:29;;;;;;;9.87;3.23;;;17.60;99.90;;;;;;5083539;28;20226;-65
2021/08/26 09:41:59;;;;;;;6.63;2.87;;;17.50;99.90;;;;;;5080677;28;20287;-66
2021/08/26 09:44:29;;;;;;;6.77;3.10;;;17.40;99.90;;;;;;5081641;28;20195;-66
2021/08/26 09:46:59;;;;;;;13.33;4.20;;;17.20;99.90;;;;;;5081631;28;20233;-66
2021/08/26 09:49:29;;;;;;;8.30;3.40;;;17.10;99.90;;;;;;5080253;28;20271;-66
2021/08/26 09:52:10;;;;;;;6.10;3.17;;;17.20;99.90;;;;;;5061300;28;20665;-66
2021/08/26 09:54:40;;;;;;;9.33;3.40;;;17.20;99.90;;;;;;5059892;28;20279;-66
2021/08/26 09:57:23;;;;;;;5.97;2.93;;;17.30;99.90;;;;;;5094347;28;20878;-67
2021/08/26 09:59:54;;;;;;;6.90;3.37;;;17.30;99.90;;;;;;5074793;28;20223;-66
2021/08/26 10:02:24;;;;;;;8.97;2.93;;;17.30;99.90;;;;;;5078867;28;20688;-66
2021/08/26 10:04:54;;;;;;;5.07;2.60;;;17.30;99.90;;;;;;5087531;28;20546;-66
2021/08/26 10:07:26;;;;;;;5.13;2.53;;;17.40;99.90;;;;;;5085629;28;20252;-66
2021/08/26 10:09:55;;;;;;;5.60;2.17;;;17.40;99.90;;;;;;5085824;28;20651;-66
2021/08/26 10:12:23;;;;;;;4.33;2.50;;;17.50;99.90;;;;;;5081070;28;20278;-65
2021/08/26 10:14:53;;;;;;;5.93;2.67;;;17.50;99.90;;;;;;5071412;28;20193;-66
2021/08/26 10:17:24;;;;;;;5.03;2.20;;;17.70;99.90;;;;;;5087301;28;20249;-66
2021/08/26 10:19:52;;;;;;;3.20;2.13;;;17.90;99.90;;;;;;5082877;28;20300;-66
2021/08/26 10:22:20;;;;;;;6.00;2.33;;;17.90;99.90;;;;;;5083759;28;20230;-67
2021/08/26 10:24:50;;;;;;;5.70;2.40;;;17.90;99.90;;;;;;5043224;28;20192;-66
2021/08/26 10:27:21;;;;;;;8.37;2.60;;;17.80;99.90;;;;;;5087579;28;20284;-67
2021/08/26 10:29:52;;;;;;;5.03;2.60;;;17.80;99.90;;;;;;5087367;28;20224;-66
2021/08/26 10:32:24;;;;;;;9.57;2.80;;;17.80;99.90;;;;;;5080803;28;20551;-66
2021/08/26 10:35:14;;;;;;;8.97;2.87;;;17.70;99.90;;;;;;5085859;28;20251;-66
2021/08/26 10:37:49;;;;;;;7.40;2.90;;;17.80;99.90;;;;;;5079209;28;20201;-66
2021/08/26 10:40:36;;;;;;;8.03;3.03;;;17.80;99.90;;;;;;5088484;28;20208;-66
2021/08/26 10:43:06;;;;;;;8.40;3.13;;;17.70;99.90;;;;;;5085055;28;20187;-66
2021/08/26 10:45:49;;;;;;;9.83;3.37;;;17.70;99.90;;;;;;5081100;28;20192;-66
2021/08/26 10:48:20;;;;;;;12.17;3.00;;;17.70;99.90;;;;;;5083057;28;20196;-66
2021/08/26 10:51:07;;;;;;;7.07;2.90;;;17.80;99.90;;;;;;5080889;28;20642;-66
2021/08/26 10:53:38;;;;;;;6.57;2.90;;;18.00;99.90;;;;;;5082020;28;20195;-67
2021/08/26 10:56:23;;;;;;;9.07;2.70;;;18.50;99.90;;;;;;5085933;28;20241;-67
2021/08/26 10:58:52;;;;;;;7.80;2.90;;;18.90;99.90;;;;;;5080499;28;20286;-66
2021/08/26 11:01:42;;;;;;;8.97;3.00;;;19.10;99.90;;;;;;5080125;28;20208;-66
2021/08/26 11:04:23;;;;;;;6.47;2.77;;;18.80;99.90;;;;;;5088334;28;20661;-66
2021/08/26 11:06:52;;;;;;;8.77;3.00;;;18.70;99.90;;;;;;5067843;28;20760;-67
2021/08/26 11:09:32;;;;;;;8.03;2.97;;;18.60;99.90;;;;;;5083686;28;20196;-67
2021/08/26 11:12:22;;;;;;;7.57;3.20;;;18.70;99.90;;;;;;5084230;28;20194;-67
2021/08/26 11:14:50;;;;;;;4.57;2.53;;;18.70;99.90;;;;;;5078660;28;20223;-66
2021/08/26 11:17:31;;;;;;;6.77;2.70;;;18.60;99.90;;;;;;5067978;28;20219;-66
2021/08/26 11:20:21;;;;;;;8.27;2.73;;;18.30;99.90;;;;;;5081209;28;20195;-67
2021/08/26 11:23:09;;;;;;;4.53;2.63;;;18.10;99.90;;;;;;5082302;28;20192;-66
2021/08/26 11:25:37;;;;;;;11.90;2.73;;;18.00;99.90;;;;;;5083080;28;20231;-66
2021/08/26 11:28:30;;;;;;;6.57;2.70;;;18.10;99.90;;;;;;5062108;28;20239;-67
2021/08/26 11:31:18;;;;;;;11.23;3.07;;;18.30;99.90;;;;;;5078288;28;20238;-66
2021/08/26 11:33:50;;;;;;;4.73;2.17;;;18.50;99.90;;;;;;5084057;28;20554;-66
2021/08/26 11:36:18;;;;;;;4.17;2.17;;;18.80;99.90;;;;;;5076236;28;20991;-67
2021/08/26 11:38:52;;;;;;;4.40;2.33;;;19.10;99.90;;;;;;5088311;28;20618;-67
2021/08/26 11:41:21;;;;;;;9.10;2.40;;;19.50;99.90;;;;;;5082402;28;20310;-67
2021/08/26 11:43:51;;;;;;;7.83;2.43;;;19.60;99.90;;;;;;5089391;28;20213;-66
2021/08/26 11:46:20;;;;;;;10.63;2.53;;;19.60;99.90;;;;;;5071731;28;20594;-66
2021/08/26 11:48:53;;;;;;;6.00;2.33;;;19.50;99.90;;;;;;5067418;28;20205;-66
2021/08/26 11:51:29;;;;;;;5.20;1.87;;;19.50;99.90;;;;;;5085767;28;20186;-66
2021/08/26 11:54:11;;;;;;;2.93;1.70;;;19.70;99.90;;;;;;5088495;28;20268;-67
2021/08/26 11:56:48;;;;;;;5.97;1.97;;;20.10;99.90;;;;;;5081234;28;20226;-67
2021/08/26 11:59:26;;;;;;;8.93;2.20;;;20.20;99.90;;;;;;5087452;28;20186;-66
2021/08/26 12:02:15;;;;;;;4.43;1.67;;;19.90;99.90;;;;;;5087515;28;20281;-66
2021/08/26 12:04:45;;;;;;;3.13;1.50;;;19.90;99.90;;;;;;5090847;28;20663;-67
2021/08/26 12:07:21;;;;;;;4.30;1.80;;;19.80;99.90;;;;;;5088965;28;20219;-67
2021/08/26 12:09:51;;;;;;;3.77;1.57;;;19.50;99.90;;;;;;5084606;28;20249;-67
2021/08/26 12:12:19;;;;;;;4.30;1.60;;;19.50;99.90;;;;;;5083315;28;20234;-66
2021/08/26 12:14:49;;;;;;;2.63;1.93;;;19.30;99.90;;;;;;5088155;28;20230;-67
2021/08/26 12:17:19;;;;;;;4.10;1.50;;;19.30;99.90;;;;;;5085472;28;20295;-67
2021/08/26 12:19:48;;;;;;;1.60;1.30;;;19.20;99.90;;;;;;5078792;28;21730;-67
2021/08/26 12:22:19;;;;;;;4.23;1.57;;;19.20;99.90;;;;;;5086069;28;20269;-67
2021/08/26 12:24:53;;;;;;;2.20;1.43;;;19.40;99.90;;;;;;5087604;28;20607;-67
2021/08/26 12:27:24;;;;;;;3.30;1.27;;;19.60;99.90;;;;;;5081989;28;20559;-67
2021/08/26 12:29:54;;;;;;;3.50;1.53;;;19.70;99.90;;;;;;5087556;28;20204;-67
2021/08/26 12:32:40;;;;;;;1.67;1.40;;;20.00;99.90;;;;;;5088235;28;20362;-66
2021/08/26 12:35:25;;;;;;;3.23;1.97;;;20.10;99.90;;;;;;5086825;28;20222;-67
2021/08/26 12:37:58;;;;;;;2.83;1.90;;;20.00;99.90;;;;;;5083377;28;20253;-67
2021/08/26 12:40:29;;;;;;;2.70;1.70;;;19.90;99.90;;;;;;5087052;28;20282;-67
2021/08/26 12:43:00;;;;;;;1.90;1.80;;;19.80;99.90;;;;;;5087074;28;20195;-66
2021/08/26 12:45:31;;;;;;;6.27;1.90;;;19.80;99.90;;;;;;5088336;28;20226;-67
2021/08/26 12:48:00;;;;;;;2.60;2.20;;;20.10;99.90;;;;;;5065888;28;20198;-67
2021/08/26 12:50:30;;;;;;;6.57;2.20;;;20.20;99.90;;;;;;5082846;28;20284;-66
2021/08/26 12:53:02;;;;;;;2.90;2.37;;;20.10;99.90;;;;;;5086759;28;20184;-67
2021/08/26 12:55:30;;;;;;;3.30;2.33;;;19.90;99.90;;;;;;5087460;28;20285;-66
2021/08/26 12:58:12;;;;;;;4.93;2.70;;;19.60;99.90;;;;;;5087755;28;20325;-67
2021/08/26 13:00:43;;;;;;;5.23;2.10;;;19.30;99.90;;;;;;5068102;28;20226;-67
2021/08/26 13:03:11;;;;;;;4.47;2.30;;;19.10;99.90;;;;;;5090352;28;20705;-67
2021/08/26 13:05:47;;;;;;;5.43;2.10;;;18.90;99.90;;;;;;5088916;28;20229;-66